createdAt,value
2023-04-07T00:00:18.474Z,100590.00
2023-04-07T00:02:47.471Z,100581.00
2023-04-07T00:05:16.166Z,100576.00
2023-04-07T00:07:55.879Z,100577.00
2023-04-07T00:10:26.240Z,100577.00
2023-04-07T00:12:54.827Z,100589.00
2023-04-07T00:15:23.576Z,100582.00
2023-04-07T00:17:52.230Z,100574.00
2023-04-07T00:20:20.537Z,100572.00
2023-04-07T00:22:49.158Z,100575.00
2023-04-07T00:25:17.651Z,100574.00
2023-04-07T00:27:47.473Z,100583.00
2023-04-07T00:30:15.940Z,100573.00
2023-04-07T00:32:45.553Z,100575.00
2023-04-07T00:35:13.740Z,100568.00
2023-04-07T00:37:42.151Z,100563.00
2023-04-07T00:40:10.867Z,100564.00
2023-04-07T00:42:39.537Z,100568.00
2023-04-07T00:45:08.383Z,100566.00
2023-04-07T00:47:37.078Z,100567.00
2023-04-07T00:50:09.061Z,100566.00
2023-04-07T00:52:37.611Z,100560.00
2023-04-07T00:55:06.705Z,100560.00
2023-04-07T00:57:34.919Z,100562.00
2023-04-07T01:00:05.556Z,100558.00
2023-04-07T01:02:44.447Z,100544.00
2023-04-07T01:05:15.826Z,100549.00
2023-04-07T01:08:22.324Z,100549.00
2023-04-07T01:11:04.073Z,100546.00
2023-04-07T01:13:43.740Z,100543.00
2023-04-07T01:16:27.954Z,100551.00
2023-04-07T01:18:58.225Z,100546.00
2023-04-07T01:21:29.292Z,100544.00
2023-04-07T01:24:30.397Z,100545.00
2023-04-07T01:27:19.945Z,100543.00
2023-04-07T01:29:50.778Z,100532.00
2023-04-07T01:32:21.010Z,100534.00
2023-04-07T01:34:50.146Z,100534.00
2023-04-07T01:37:18.854Z,100535.00
2023-04-07T01:39:47.009Z,100537.00
2023-04-07T01:42:16.799Z,100541.00
2023-04-07T01:44:45.374Z,100541.00
2023-04-07T01:47:14.011Z,100547.00
2023-04-07T01:49:43.476Z,100555.00
2023-04-07T01:52:11.848Z,100553.00
2023-04-07T01:54:40.985Z,100557.00
2023-04-07T01:57:09.052Z,100558.00
2023-04-07T01:59:37.134Z,100550.00
2023-04-07T02:02:06.332Z,100554.00
2023-04-07T02:04:45.150Z,100554.00
2023-04-07T02:07:41.586Z,100548.00
2023-04-07T02:10:13.375Z,100547.00
2023-04-07T02:12:42.477Z,100554.00
2023-04-07T02:15:17.664Z,100550.00
2023-04-07T02:17:49.394Z,100553.00
2023-04-07T02:20:17.374Z,100548.00
2023-04-07T02:22:45.535Z,100539.00
2023-04-07T02:25:30.527Z,100540.00
2023-04-07T02:28:00.137Z,100533.00
2023-04-07T02:30:28.622Z,100535.00
2023-04-07T02:32:57.651Z,100544.00
2023-04-07T02:35:25.969Z,100546.00
2023-04-07T02:38:41.020Z,100545.00
2023-04-07T02:41:08.954Z,100551.00
2023-04-07T02:43:36.951Z,100547.00
2023-04-07T02:46:05.161Z,100542.00
2023-04-07T02:48:33.188Z,100542.00
2023-04-07T02:51:01.115Z,100549.00
2023-04-07T02:53:29.113Z,100554.00
2023-04-07T02:55:57.184Z,100549.00
2023-04-07T02:58:25.203Z,100549.00
2023-04-07T03:00:53.512Z,100542.00
2023-04-07T03:03:24.196Z,100538.00
2023-04-07T03:06:08.662Z,100542.00
2023-04-07T03:08:44.427Z,100538.00
2023-04-07T03:11:12.545Z,100535.00
2023-04-07T03:13:40.918Z,100535.00
2023-04-07T03:16:09.162Z,100532.00
2023-04-07T03:18:46.561Z,100533.00
2023-04-07T03:21:14.689Z,100531.00
2023-04-07T03:23:42.654Z,100544.00
2023-04-07T03:26:10.840Z,100535.00
2023-04-07T03:28:39.932Z,100534.00
2023-04-07T03:31:08.258Z,100529.00
2023-04-07T03:33:36.662Z,100535.00
2023-04-07T03:36:05.643Z,100528.00
2023-04-07T03:38:33.615Z,100532.00
2023-04-07T03:41:04.240Z,100526.00
2023-04-07T03:43:32.374Z,100534.00
2023-04-07T03:46:02.520Z,100530.00
2023-04-07T03:48:30.774Z,100529.00
2023-04-07T03:51:04.478Z,100530.00
2023-04-07T03:53:33.410Z,100520.00
2023-04-07T03:56:06.848Z,100514.00
2023-04-07T03:58:46.834Z,100519.00
2023-04-07T04:05:01.183Z,100525.00
2023-04-07T04:07:29.162Z,100524.00
2023-04-07T04:10:04.203Z,100536.00
2023-04-07T04:12:37.756Z,100530.00
2023-04-07T04:15:10.896Z,100539.00
2023-04-07T04:17:40.314Z,100537.00
2023-04-07T04:20:10.302Z,100539.00
2023-04-07T04:22:47.812Z,100537.00
2023-04-07T04:25:17.290Z,100538.00
2023-04-07T04:27:49.220Z,100542.00
2023-04-07T04:30:28.085Z,100543.00
2023-04-07T04:33:00.638Z,100541.00
2023-04-07T04:35:43.810Z,100547.00
2023-04-07T04:38:15.536Z,100542.00
2023-04-07T04:40:48.598Z,100544.00
2023-04-07T04:43:20.107Z,100542.00
2023-04-07T04:45:48.817Z,100546.00
2023-04-07T04:48:19.432Z,100551.00
2023-04-07T04:50:48.638Z,100556.00
2023-04-07T04:53:16.932Z,100551.00
2023-04-07T04:55:58.475Z,100557.00
2023-04-07T04:58:46.795Z,100556.00
2023-04-07T05:01:34.494Z,100562.00
2023-04-07T05:04:09.674Z,100569.00
2023-04-07T05:06:40.724Z,100564.00
2023-04-07T05:09:12.355Z,100568.00
2023-04-07T05:11:46.350Z,100566.00
2023-04-07T05:14:14.573Z,100563.00
2023-04-07T05:16:48.505Z,100573.00
2023-04-07T05:19:23.612Z,100572.00
2023-04-07T05:21:55.069Z,100577.00
2023-04-07T05:24:26.420Z,100566.00
2023-04-07T05:26:57.354Z,100566.00
2023-04-07T05:29:26.243Z,100576.00
2023-04-07T05:31:55.996Z,100572.00
2023-04-07T05:34:26.006Z,100580.00
2023-04-07T05:36:56.626Z,100581.00
2023-04-07T05:39:25.115Z,100578.00
2023-04-07T05:41:57.962Z,100586.00
2023-04-07T05:44:28.181Z,100587.00
2023-04-07T05:46:57.088Z,100583.00
2023-04-07T05:49:26.748Z,100583.00
2023-04-07T05:52:03.913Z,100580.00
2023-04-07T05:54:31.998Z,100588.00
2023-04-07T05:57:02.794Z,100593.00
2023-04-07T05:59:33.311Z,100601.00
2023-04-07T06:02:03.085Z,100596.00
2023-04-07T06:04:31.904Z,100597.00
2023-04-07T06:07:03.411Z,100598.00
2023-04-07T06:09:31.590Z,100601.00
2023-04-07T06:11:59.603Z,100595.00
2023-04-07T06:14:27.838Z,100596.00
2023-04-07T06:16:55.780Z,100600.00
2023-04-07T06:19:27.805Z,100607.00
2023-04-07T06:21:55.872Z,100613.00
2023-04-07T06:24:25.504Z,100598.00
2023-04-07T06:26:54.359Z,100606.00
2023-04-07T06:29:22.798Z,100600.00
2023-04-07T06:31:50.831Z,100606.00
2023-04-07T06:34:20.028Z,100603.00
2023-04-07T06:36:48.121Z,100612.00
2023-04-07T06:39:16.023Z,100608.00
2023-04-07T06:41:44.092Z,100610.00
2023-04-07T06:44:12.325Z,100608.00
2023-04-07T06:46:41.971Z,100611.00
2023-04-07T06:49:10.015Z,100618.00
2023-04-07T06:51:38.017Z,100613.00
2023-04-07T06:54:07.901Z,100610.00
2023-04-07T06:56:36.138Z,100614.00
2023-04-07T06:59:04.197Z,100612.00
2023-04-07T07:01:32.512Z,100622.00
2023-04-07T07:04:03.694Z,100624.00
2023-04-07T07:06:31.954Z,100624.00
2023-04-07T07:09:01.011Z,100628.00
2023-04-07T07:11:28.926Z,100632.00
2023-04-07T07:13:56.825Z,100628.00
2023-04-07T07:16:24.798Z,100637.00
2023-04-07T07:18:52.645Z,100635.00
2023-04-07T07:21:20.871Z,100627.00
2023-04-07T07:23:49.173Z,100632.00
2023-04-07T07:26:17.472Z,100637.00
2023-04-07T07:28:45.469Z,100636.00
2023-04-07T07:31:16.153Z,100640.00
2023-04-07T07:33:46.233Z,100641.00
2023-04-07T07:36:14.549Z,100636.00
2023-04-07T07:38:44.759Z,100645.00
2023-04-07T07:41:12.744Z,100651.00
2023-04-07T07:43:41.545Z,100655.00
2023-04-07T07:46:09.398Z,100661.00
2023-04-07T07:48:37.445Z,100662.00
2023-04-07T07:51:06.144Z,100666.00
2023-04-07T07:53:34.271Z,100668.00
2023-04-07T07:56:02.282Z,100668.00
2023-04-07T07:58:30.188Z,100666.00
2023-04-07T08:00:57.980Z,100671.00
2023-04-07T08:03:26.137Z,100679.00
2023-04-07T08:05:54.432Z,100672.00
2023-04-07T08:08:22.509Z,100675.00
2023-04-07T08:10:50.890Z,100677.00
2023-04-07T08:13:18.959Z,100681.00
2023-04-07T08:15:46.724Z,100668.00
2023-04-07T08:18:14.742Z,100680.00
2023-04-07T08:20:42.691Z,100678.00
2023-04-07T08:23:10.612Z,100685.00
2023-04-07T08:25:41.979Z,100696.00
2023-04-07T08:28:09.895Z,100687.00
2023-04-07T08:30:38.232Z,100700.00
2023-04-07T08:33:07.077Z,100695.00
2023-04-07T08:35:35.010Z,100693.00
2023-04-07T08:38:03.916Z,100698.00
2023-04-07T08:40:32.499Z,100698.00
2023-04-07T08:43:01.913Z,100698.00
2023-04-07T08:45:31.611Z,100697.00
2023-04-07T08:48:00.703Z,100703.00
2023-04-07T08:50:28.710Z,100704.00
2023-04-07T08:52:57.790Z,100697.00
2023-04-07T08:55:26.563Z,100699.00
2023-04-07T08:57:54.835Z,100695.00
2023-04-07T09:00:23.035Z,100704.00
2023-04-07T09:02:52.481Z,100704.00
2023-04-07T09:05:21.628Z,100714.00
2023-04-07T09:07:49.614Z,100722.00
2023-04-07T09:10:18.085Z,100713.00
2023-04-07T09:12:46.396Z,100706.00
2023-04-07T09:15:14.476Z,100708.00
2023-04-07T09:17:42.702Z,100719.00
2023-04-07T09:20:11.462Z,100711.00
2023-04-07T09:22:42.633Z,100713.00
2023-04-07T09:25:11.383Z,100708.00
2023-04-07T09:27:39.232Z,100720.00
2023-04-07T09:30:17.354Z,100712.00
2023-04-07T09:32:45.434Z,100715.00
2023-04-07T09:35:13.680Z,100718.00
2023-04-07T09:37:42.894Z,100717.00
2023-04-07T09:40:11.272Z,100717.00
2023-04-07T09:42:48.577Z,100719.00
2023-04-07T09:45:34.420Z,100716.00
2023-04-07T09:48:28.088Z,100715.00
2023-04-07T09:51:09.910Z,100712.00
2023-04-07T09:53:47.922Z,100711.00
2023-04-07T09:56:22.737Z,100716.00
2023-04-07T09:58:54.770Z,100715.00
2023-04-07T10:01:23.342Z,100716.00
2023-04-07T10:03:51.743Z,100718.00
2023-04-07T10:06:20.939Z,100718.00
2023-04-07T10:08:49.158Z,100722.00
2023-04-07T10:11:18.382Z,100715.00
2023-04-07T10:13:47.864Z,100722.00
2023-04-07T10:16:16.126Z,100720.00
2023-04-07T10:18:44.799Z,100722.00
2023-04-07T10:21:15.541Z,100719.00
2023-04-07T10:24:20.920Z,100719.00
2023-04-07T10:26:54.601Z,100721.00
2023-04-07T10:29:23.699Z,100727.00
2023-04-07T10:31:52.877Z,100733.00
2023-04-07T10:34:59.745Z,100728.00
2023-04-07T10:37:28.187Z,100734.00
2023-04-07T10:40:22.025Z,100726.00
2023-04-07T10:42:51.115Z,100729.00
2023-04-07T10:45:59.970Z,100730.00
2023-04-07T10:48:29.209Z,100722.00
2023-04-07T10:51:06.483Z,100733.00
2023-04-07T10:53:35.500Z,100734.00
2023-04-07T10:56:03.835Z,100740.00
2023-04-07T10:58:32.875Z,100738.00
2023-04-07T11:01:10.358Z,100735.00
2023-04-07T11:03:43.487Z,100735.00
2023-04-07T11:06:13.887Z,100734.00
2023-04-07T11:08:44.785Z,100740.00
2023-04-07T11:11:16.068Z,100742.00
2023-04-07T11:13:49.149Z,100746.00
2023-04-07T11:16:19.676Z,100744.00
2023-04-07T11:18:48.631Z,100742.00
2023-04-07T11:21:20.547Z,100736.00
2023-04-07T11:23:49.506Z,100739.00
2023-04-07T11:26:21.963Z,100738.00
2023-04-07T11:28:59.501Z,100739.00
2023-04-07T11:31:34.245Z,100745.00
2023-04-07T11:34:05.259Z,100729.00
2023-04-07T11:36:36.067Z,100734.00
2023-04-07T11:39:04.248Z,100733.00
2023-04-07T11:41:33.552Z,100733.00
2023-04-07T11:44:20.237Z,100734.00
2023-04-07T11:46:59.745Z,100728.00
2023-04-07T11:49:29.177Z,100734.00
2023-04-07T11:52:05.972Z,100736.00
2023-04-07T11:54:47.667Z,100737.00
2023-04-07T11:57:16.667Z,100733.00
2023-04-07T11:59:44.793Z,100736.00
2023-04-07T12:02:15.162Z,100730.00
2023-04-07T12:04:57.832Z,100733.00
2023-04-07T12:07:27.386Z,100733.00
2023-04-07T12:09:57.682Z,100745.00
2023-04-07T12:12:30.112Z,100734.00
2023-04-07T12:14:58.207Z,100735.00
2023-04-07T12:17:27.476Z,100747.00
2023-04-07T12:19:55.739Z,100738.00
2023-04-07T12:22:24.208Z,100738.00
2023-04-07T12:24:52.366Z,100736.00
2023-04-07T12:27:26.723Z,100737.00
2023-04-07T12:30:00.600Z,100739.00
2023-04-07T12:32:29.518Z,100731.00
2023-04-07T12:34:57.340Z,100736.00
2023-04-07T12:37:25.372Z,100736.00
2023-04-07T12:39:53.551Z,100738.00
2023-04-07T12:42:21.629Z,100742.00
2023-04-07T12:44:50.078Z,100737.00
2023-04-07T12:47:18.027Z,100740.00
2023-04-07T12:49:49.274Z,100740.00
2023-04-07T12:52:18.239Z,100741.00
2023-04-07T12:54:46.262Z,100746.00
2023-04-07T12:57:14.233Z,100744.00
2023-04-07T12:59:42.091Z,100736.00
2023-04-07T13:02:10.660Z,100740.00
2023-04-07T13:04:41.238Z,100747.00
2023-04-07T13:07:10.258Z,100748.00
2023-04-07T13:09:38.157Z,100741.00
2023-04-07T13:12:06.358Z,100751.00
2023-04-07T13:14:34.296Z,100745.00
2023-04-07T13:17:02.490Z,100745.00
2023-04-07T13:19:31.737Z,100747.00
2023-04-07T13:21:59.724Z,100741.00
2023-04-07T13:24:27.779Z,100744.00
2023-04-07T13:26:56.340Z,100740.00
2023-04-07T13:29:24.731Z,100741.00
2023-04-07T13:31:52.692Z,100743.00
2023-04-07T13:34:20.755Z,100747.00
2023-04-07T13:36:48.699Z,100748.00
2023-04-07T13:39:16.630Z,100745.00
2023-04-07T13:41:46.540Z,100743.00
2023-04-07T13:44:14.644Z,100743.00
2023-04-07T13:46:43.386Z,100742.00
2023-04-07T13:49:11.616Z,100746.00
2023-04-07T13:51:39.807Z,100751.00
2023-04-07T13:54:08.048Z,100741.00
2023-04-07T13:56:36.253Z,100747.00
2023-04-07T13:59:07.998Z,100740.00
2023-04-07T14:01:39.249Z,100732.00
2023-04-07T14:04:11.145Z,100735.00
2023-04-07T14:06:39.271Z,100735.00
2023-04-07T14:09:07.670Z,100724.00
2023-04-07T14:11:36.693Z,100734.00
2023-04-07T14:14:04.561Z,100732.00
2023-04-07T14:16:32.618Z,100735.00
2023-04-07T14:19:00.707Z,100730.00
2023-04-07T14:21:29.070Z,100736.00
2023-04-07T14:24:01.541Z,100741.00
2023-04-07T14:26:30.248Z,100733.00
2023-04-07T14:28:58.534Z,100735.00
2023-04-07T14:31:27.196Z,100736.00
2023-04-07T14:33:55.803Z,100731.00
2023-04-07T14:36:24.392Z,100734.00
2023-04-07T14:38:53.402Z,100733.00
2023-04-07T14:41:24.644Z,100741.00
2023-04-07T14:43:56.453Z,100736.00
2023-04-07T14:46:25.248Z,100745.00
2023-04-07T14:48:53.662Z,100739.00
2023-04-07T14:51:22.625Z,100737.00
2023-04-07T14:53:56.170Z,100733.00
2023-04-07T14:56:25.799Z,100741.00
2023-04-07T14:58:54.747Z,100743.00
2023-04-07T15:01:23.428Z,100739.00
2023-04-07T15:03:53.501Z,100745.00
2023-04-07T15:06:22.429Z,100741.00
2023-04-07T15:08:50.805Z,100750.00
2023-04-07T15:11:18.808Z,100746.00
2023-04-07T15:13:46.994Z,100746.00
2023-04-07T15:16:16.086Z,100740.00
2023-04-07T15:18:45.824Z,100737.00
2023-04-07T15:21:15.038Z,100748.00
2023-04-07T15:23:43.204Z,100743.00
2023-04-07T15:26:11.616Z,100747.00
2023-04-07T15:28:40.246Z,100748.00
2023-04-07T15:31:11.336Z,100750.00
2023-04-07T15:33:40.675Z,100739.00
2023-04-07T15:36:09.404Z,100746.00
2023-04-07T15:38:39.588Z,100744.00
2023-04-07T15:41:08.259Z,100738.00
2023-04-07T15:43:37.780Z,100743.00
2023-04-07T15:46:05.915Z,100747.00
2023-04-07T15:48:34.249Z,100741.00
2023-04-07T15:51:02.409Z,100743.00
2023-04-07T15:53:31.137Z,100745.00
2023-04-07T15:55:59.741Z,100741.00
2023-04-07T15:58:28.519Z,100745.00
2023-04-07T16:00:57.294Z,100743.00
2023-04-07T16:03:26.200Z,100749.00
2023-04-07T16:05:54.816Z,100749.00
2023-04-07T16:08:23.484Z,100756.00
2023-04-07T16:10:52.054Z,100745.00
2023-04-07T16:13:20.298Z,100754.00
2023-04-07T16:15:48.490Z,100758.00
2023-04-07T16:18:17.088Z,100757.00
2023-04-07T16:20:45.404Z,100765.00
2023-04-07T16:23:14.032Z,100754.00
2023-04-07T16:25:41.977Z,100763.00
2023-04-07T16:28:12.203Z,100766.00
2023-04-07T16:31:00.220Z,100760.00
2023-04-07T16:33:28.505Z,100776.00
2023-04-07T16:35:56.456Z,100772.00
2023-04-07T16:38:25.266Z,100782.00
2023-04-07T16:41:03.252Z,100785.00
2023-04-07T16:43:32.610Z,100786.00
2023-04-07T16:46:00.784Z,100789.00
2023-04-07T16:48:28.979Z,100787.00
2023-04-07T16:50:57.592Z,100791.00
2023-04-07T16:53:26.798Z,100797.00
2023-04-07T16:55:55.609Z,100807.00
2023-04-07T16:58:23.990Z,100806.00
2023-04-07T17:00:52.026Z,100813.00
2023-04-07T17:03:20.238Z,100801.00
2023-04-07T17:05:49.571Z,100811.00
2023-04-07T17:08:17.932Z,100811.00
2023-04-07T17:10:46.207Z,100817.00
2023-04-07T17:13:14.755Z,100816.00
2023-04-07T17:15:42.952Z,100819.00
2023-04-07T17:18:11.268Z,100827.00
2023-04-07T17:20:39.983Z,100821.00
2023-04-07T17:23:09.525Z,100838.00
2023-04-07T17:25:37.976Z,100834.00
2023-04-07T17:28:06.189Z,100837.00
2023-04-07T17:30:34.745Z,100836.00
2023-04-07T17:33:04.075Z,100844.00
2023-04-07T17:35:32.170Z,100838.00
2023-04-07T17:38:03.050Z,100849.00
2023-04-07T17:40:31.573Z,100848.00
2023-04-07T17:43:02.609Z,100852.00
2023-04-07T17:45:33.938Z,100855.00
2023-04-07T17:48:02.115Z,100849.00
2023-04-07T17:50:30.799Z,100853.00
2023-04-07T17:53:00.612Z,100850.00
2023-04-07T17:55:28.980Z,100856.00
2023-04-07T17:58:01.265Z,100861.00
2023-04-07T18:00:30.393Z,100870.00
2023-04-07T18:02:59.415Z,100865.00
2023-04-07T18:05:31.141Z,100867.00
2023-04-07T18:07:59.554Z,100869.00
2023-04-07T18:10:28.307Z,100867.00
2023-04-07T18:12:56.423Z,100868.00
2023-04-07T18:15:24.793Z,100871.00
2023-04-07T18:17:55.877Z,100883.00
2023-04-07T18:20:27.574Z,100879.00
2023-04-07T18:22:56.205Z,100884.00
2023-04-07T18:25:24.672Z,100888.00
2023-04-07T18:27:54.072Z,100892.00
2023-04-07T18:30:22.784Z,100894.00
2023-04-07T18:32:51.230Z,100893.00
2023-04-07T18:35:19.264Z,100900.00
2023-04-07T18:37:47.854Z,100898.00
2023-04-07T18:40:16.555Z,100903.00
2023-04-07T18:42:44.915Z,100913.00
2023-04-07T18:45:12.905Z,100908.00
2023-04-07T18:47:41.437Z,100919.00
2023-04-07T18:50:10.490Z,100913.00
2023-04-07T18:52:38.491Z,100928.00
2023-04-07T18:55:07.293Z,100924.00
2023-04-07T18:57:35.448Z,100932.00
2023-04-07T19:00:04.344Z,100932.00
2023-04-07T19:02:32.489Z,100931.00
2023-04-07T19:05:01.777Z,100935.00
2023-04-07T19:07:29.948Z,100937.00
2023-04-07T19:09:58.168Z,100945.00
2023-04-07T19:12:26.164Z,100953.00
2023-04-07T19:14:55.918Z,100959.00
2023-04-07T19:17:25.043Z,100954.00
2023-04-07T19:19:53.301Z,100960.00
2023-04-07T19:22:21.482Z,100965.00
2023-04-07T19:24:49.409Z,100959.00
2023-04-07T19:27:18.309Z,100963.00
2023-04-07T19:29:46.212Z,100968.00
2023-04-07T19:32:17.283Z,100974.00
2023-04-07T19:34:45.924Z,100973.00
2023-04-07T19:37:13.996Z,100980.00
2023-04-07T19:39:46.834Z,100979.00
2023-04-07T19:42:20.763Z,100986.00
2023-04-07T19:44:48.679Z,100984.00
2023-04-07T19:47:16.860Z,100977.00
2023-04-07T19:49:46.635Z,100974.00
2023-04-07T19:52:14.670Z,100984.00
2023-04-07T19:54:43.051Z,100989.00
2023-04-07T19:57:11.643Z,100985.00
2023-04-07T19:59:39.563Z,100976.00
2023-04-07T20:02:07.737Z,100992.00
2023-04-07T20:04:36.072Z,100987.00
2023-04-07T20:07:04.389Z,100987.00
2023-04-07T20:09:32.694Z,100999.00
2023-04-07T20:12:01.953Z,101000.00
2023-04-07T20:14:30.365Z,100994.00
2023-04-07T20:16:59.126Z,101001.00
2023-04-07T20:19:27.300Z,101008.00
2023-04-07T20:21:55.445Z,100998.00
2023-04-07T20:24:26.694Z,101005.00
2023-04-07T20:26:54.562Z,100998.00
2023-04-07T20:29:22.779Z,100998.00
2023-04-07T20:31:51.349Z,101005.00
2023-04-07T20:34:19.628Z,101012.00
2023-04-07T20:36:49.074Z,101006.00
2023-04-07T20:39:17.507Z,101010.00
2023-04-07T20:41:45.857Z,101006.00
2023-04-07T20:44:13.894Z,101015.00
2023-04-07T20:46:42.562Z,101013.00
2023-04-07T20:49:11.189Z,101009.00
2023-04-07T20:51:39.452Z,101006.00
2023-04-07T20:54:08.152Z,101011.00
2023-04-07T20:56:36.358Z,101011.00
2023-04-07T20:59:04.534Z,101017.00
2023-04-07T21:01:32.788Z,101015.00
2023-04-07T21:04:02.898Z,101024.00
2023-04-07T21:06:31.601Z,101018.00
2023-04-07T21:08:59.825Z,101021.00
2023-04-07T21:11:28.041Z,101015.00
2023-04-07T21:13:56.237Z,101018.00
2023-04-07T21:16:24.888Z,101023.00
2023-04-07T21:18:52.995Z,101021.00
2023-04-07T21:21:20.982Z,101022.00
2023-04-07T21:23:48.944Z,101025.00
2023-04-07T21:26:16.913Z,101023.00
2023-04-07T21:28:45.194Z,101028.00
2023-04-07T21:31:22.912Z,101029.00
2023-04-07T21:33:51.828Z,101027.00
2023-04-07T21:36:19.708Z,101032.00
2023-04-07T21:38:48.273Z,101024.00
2023-04-07T21:41:16.992Z,101040.00
2023-04-07T21:43:45.109Z,101038.00
2023-04-07T21:46:14.453Z,101036.00
2023-04-07T21:48:42.747Z,101037.00
2023-04-07T21:51:11.581Z,101028.00
2023-04-07T21:53:40.782Z,101036.00
2023-04-07T21:56:09.728Z,101039.00
2023-04-07T21:58:37.930Z,101040.00
2023-04-07T22:01:06.043Z,101040.00
2023-04-07T22:03:34.362Z,101038.00
2023-04-07T22:06:02.873Z,101043.00
2023-04-07T22:08:31.092Z,101039.00
2023-04-07T22:10:59.316Z,101040.00
2023-04-07T22:13:27.757Z,101040.00
2023-04-07T22:15:56.735Z,101043.00
2023-04-07T22:18:24.868Z,101043.00
2023-04-07T22:20:53.157Z,101047.00
2023-04-07T22:23:21.390Z,101044.00
2023-04-07T22:25:49.761Z,101044.00
2023-04-07T22:28:17.820Z,101048.00
2023-04-07T22:30:46.287Z,101040.00
2023-04-07T22:33:14.374Z,101038.00
2023-04-07T22:35:42.508Z,101027.00
2023-04-07T22:38:10.759Z,101044.00
2023-04-07T22:40:38.773Z,101042.00
2023-04-07T22:43:06.908Z,101034.00
2023-04-07T22:45:35.756Z,101042.00
2023-04-07T22:48:03.898Z,101046.00
2023-04-07T22:50:32.345Z,101044.00
2023-04-07T22:53:00.844Z,101048.00
2023-04-07T22:55:29.541Z,101048.00
2023-04-07T22:57:57.546Z,101054.00
2023-04-07T23:00:26.090Z,101055.00
2023-04-07T23:02:54.566Z,101058.00
2023-04-07T23:05:22.743Z,101059.00
2023-04-07T23:07:52.394Z,101045.00
2023-04-07T23:10:20.832Z,101049.00
2023-04-07T23:12:48.995Z,101052.00
2023-04-07T23:15:17.262Z,101051.00
2023-04-07T23:17:45.307Z,101052.00
2023-04-07T23:20:15.961Z,101044.00
2023-04-07T23:22:44.078Z,101038.00
2023-04-07T23:25:12.109Z,101035.00
2023-04-07T23:27:40.406Z,101037.00
2023-04-07T23:30:08.986Z,101042.00
2023-04-07T23:32:37.070Z,101042.00
2023-04-07T23:35:05.510Z,101039.00
2023-04-07T23:37:33.476Z,101030.00
2023-04-07T23:40:01.783Z,101031.00
2023-04-07T23:42:29.855Z,101036.00
2023-04-07T23:44:57.904Z,101042.00
2023-04-07T23:47:26.257Z,101051.00
2023-04-07T23:49:54.426Z,101049.00
2023-04-07T23:52:26.313Z,101046.00
2023-04-07T23:54:54.498Z,101055.00
2023-04-07T23:57:22.500Z,101046.00
2023-04-07T23:59:50.928Z,101053.00
